Time;durP1;ratioP1;P1;durP2;ratioP2;P2;SDS_P1;SDS_P2;PMS_P1;PMS_P2;Temp;Humidity;BMP_temperature;BMP_pressure;BME280_temperature;BME280_humidity;BME280_pressure;Samples;Min_cycle;Max_cycle;Signal;HPM_P1;HPM_P2
2023/03/10 00:01:36;;;;;;;9.95;5.00;;;;;;;-3.31;76.05;97685.91;7345508;19;20015;-69
2023/03/10 00:04:02;;;;;;;8.60;4.82;;;;;;;-3.34;75.84;97683.44;7346678;19;20508;-69
2023/03/10 00:06:31;;;;;;;11.20;5.20;;;;;;;-3.26;76.33;97684.81;7346927;19;20374;-66
2023/03/10 00:08:56;;;;;;;7.57;5.13;;;;;;;-3.26;76.35;97701.31;7344931;19;20030;-74
2023/03/10 00:11:20;;;;;;;10.02;5.18;;;;;;;-3.22;76.58;97704.63;7346604;19;20010;-71
2023/03/10 00:13:45;;;;;;;11.75;5.07;;;;;;;-3.19;76.64;97691.47;7346177;19;20041;-70
2023/03/10 00:16:30;;;;;;;11.73;5.78;;;;;;;-3.13;76.49;97685.94;7348192;19;20010;-80
2023/03/10 00:18:55;;;;;;;;;;;;;;;-3.06;76.73;97692.56;7348625;19;20021;-74
2023/03/10 00:21:21;;;;;;;;;;;;;;;-3.01;76.96;97693.16;7346758;19;19930;-73
2023/03/10 00:23:46;;;;;;;9.77;4.55;;;;;;;-3.11;76.54;97694.53;7345660;19;19922;-79
2023/03/10 00:26:13;;;;;;;7.80;4.15;;;;;;;-3.12;76.59;97695.44;7347342;19;20018;-75
2023/03/10 00:28:38;;;;;;;9.52;4.55;;;;;;;-3.10;76.63;97701.44;7347348;19;20067;-74
2023/03/10 00:31:09;;;;;;;9.50;4.95;;;;;;;-3.10;76.73;97707.50;7347359;19;20023;-77
2023/03/10 00:33:34;;;;;;;8.70;5.13;;;;;;;-3.13;76.62;97706.78;7344769;19;20078;-72
2023/03/10 00:36:05;;;;;;;11.32;4.93;;;;;;;-3.10;76.40;97712.72;7345232;19;20020;-67
2023/03/10 00:38:30;;;;;;;7.40;5.25;;;;;;;-3.20;76.09;97706.25;7344542;19;20029;-64
2023/03/10 00:41:04;;;;;;;9.30;5.20;;;;;;;-3.21;76.16;97708.91;7345020;19;20014;-64
2023/03/10 00:43:29;;;;;;;9.95;4.85;;;;;;;-3.26;75.76;97705.69;7344696;19;20088;-66
2023/03/10 00:45:54;;;;;;;7.85;4.85;;;;;;;-3.26;75.96;97711.72;7345339;19;20007;-66
2023/03/10 00:48:19;;;;;;;11.73;6.57;;;;;;;-3.27;75.79;97704.00;7341573;19;20485;-65
2023/03/10 00:50:44;;;;;;;8.55;4.97;;;;;;;-3.28;75.39;97707.53;7344549;19;20022;-65
2023/03/10 00:53:08;;;;;;;9.73;5.22;;;;;;;-3.27;75.71;97709.22;7344032;19;20022;-66
2023/03/10 00:55:33;;;;;;;7.38;4.80;;;;;;;-3.20;75.91;97708.00;7343754;19;20097;-66
2023/03/10 00:57:57;;;;;;;7.15;4.28;;;;;;;-3.19;76.28;97707.09;7344072;19;20006;-66
2023/03/10 01:00:23;;;;;;;11.63;6.13;;;;;;;-3.18;76.28;97717.44;7344321;19;20084;-67
2023/03/10 01:02:50;;;;;;;9.98;5.47;;;;;;;-3.19;76.20;97707.09;7344948;19;20472;-64
2023/03/10 01:05:16;;;;;;;8.02;4.00;;;;;;;-3.18;75.70;97706.19;7346476;19;20018;-65
2023/03/10 01:07:41;;;;;;;7.53;4.57;;;;;;;-3.16;75.95;97710.38;7342989;19;20092;-65
2023/03/10 01:10:06;;;;;;;8.90;5.18;;;;;;;-3.14;76.06;97712.91;7346800;19;20026;-64
2023/03/10 01:12:30;;;;;;;8.93;4.70;;;;;;;-3.13;75.95;97718.06;7345350;19;20018;-66
2023/03/10 01:14:55;;;;;;;8.15;5.45;;;;;;;-3.14;75.68;97716.38;7342460;19;20055;-64
2023/03/10 01:17:19;;;;;;;6.78;4.00;;;;;;;-3.12;75.71;97716.28;7345082;19;20022;-64
2023/03/10 01:19:44;;;;;;;7.75;4.38;;;;;;;-3.12;75.61;97714.53;7343602;19;20007;-66
2023/03/10 01:22:08;;;;;;;6.20;3.95;;;;;;;-3.11;75.76;97704.97;7341181;19;20494;-65
2023/03/10 01:24:33;;;;;;;5.43;3.83;;;;;;;-3.12;75.73;97708.47;7343483;19;20493;-64
2023/03/10 01:26:58;;;;;;;6.60;3.88;;;;;;;-3.11;75.68;97710.16;7344380;19;20021;-64
2023/03/10 01:29:22;;;;;;;12.75;4.50;;;;;;;-3.13;75.67;97707.63;7344417;19;20367;-66
2023/03/10 01:31:47;;;;;;;4.22;3.22;;;;;;;-3.15;75.44;97700.78;7347810;19;20395;-65
2023/03/10 01:34:11;;;;;;;5.70;3.25;;;;;;;-3.16;75.36;97706.97;7346035;19;20011;-64
2023/03/10 01:36:36;;;;;;;9.75;3.33;;;;;;;-3.18;75.26;97706.19;7342213;19;20114;-67
2023/03/10 01:39:01;;;;;;;5.05;3.40;;;;;;;-3.20;74.92;97706.25;7346467;19;20014;-62
2023/03/10 01:41:25;;;;;;;5.25;3.53;;;;;;;-3.21;75.08;97711.53;7345332;19;20022;-64
2023/03/10 01:43:55;;;;;;;7.15;3.33;;;;;;;-3.20;74.88;97716.66;7351333;19;20045;-69
2023/03/10 01:46:32;;;;;;;6.03;3.75;;;;;;;-3.20;74.64;97716.66;7345257;19;20014;-67
2023/03/10 01:49:06;;;;;;;5.35;3.45;;;;;;;-3.18;75.11;97717.44;7343719;19;20030;-66
2023/03/10 01:51:33;;;;;;;7.03;3.83;;;;;;;-3.20;74.89;97729.69;7339368;19;20089;-66
2023/03/10 01:53:59;;;;;;;5.97;3.72;;;;;;;-3.23;74.69;97729.00;7344771;19;20018;-68
2023/03/10 01:56:24;;;;;;;5.88;3.88;;;;;;;-3.24;74.79;97735.13;7342113;19;20023;-65
2023/03/10 01:58:49;;;;;;;5.35;3.60;;;;;;;-3.25;74.68;97728.22;7344129;19;20027;-65
2023/03/10 02:01:16;;;;;;;4.40;3.10;;;;;;;-3.27;74.61;97730.88;7339175;19;20021;-65
2023/03/10 02:03:50;;;;;;;7.32;3.13;;;;;;;-3.29;74.52;97735.34;7344350;19;20090;-65
2023/03/10 02:06:18;;;;;;;3.45;2.63;;;;;;;-3.31;74.33;97756.25;7339801;19;20480;-66
2023/03/10 02:08:48;;;;;;;5.40;3.25;;;;;;;-3.31;74.04;97724.16;7339607;19;20047;-65
2023/03/10 02:11:14;;;;;;;4.57;3.15;;;;;;;-3.31;74.00;97739.78;7343457;19;20014;-66
2023/03/10 02:13:40;;;;;;;5.70;3.70;;;;;;;-3.31;73.59;97740.63;7343182;19;20473;-65
2023/03/10 02:16:05;;;;;;;7.68;3.28;;;;;;;-3.29;73.30;97745.78;7342748;19;20485;-65
2023/03/10 02:18:30;;;;;;;4.65;3.20;;;;;;;-3.28;72.88;97749.22;7341654;19;20022;-65
2023/03/10 02:21:38;;;;;;;9.48;3.70;;;;;;;-3.18;73.21;97750.47;7343635;19;20025;-66
2023/03/10 02:24:11;;;;;;;9.68;2.95;;;;;;;-3.17;73.06;97749.56;7339789;19;20021;-67
2023/03/10 02:27:03;;;;;;;4.15;3.05;;;;;;;-3.13;73.24;97754.53;7341097;19;20031;-68
2023/03/10 02:29:42;;;;;;;5.18;2.75;;;;;;;-3.12;73.24;97761.44;7342239;19;20025;-69
2023/03/10 02:32:07;;;;;;;6.35;3.67;;;;;;;-3.19;73.02;97765.28;7340471;19;20023;-68
2023/03/10 02:34:32;;;;;;;5.00;3.05;;;;;;;-3.17;73.06;97778.22;7338502;19;20374;-67
2023/03/10 02:36:57;;;;;;;4.45;3.35;;;;;;;-3.21;73.56;97768.84;7338766;19;20029;-69
2023/03/10 02:39:21;;;;;;;3.80;2.80;;;;;;;-3.19;73.54;97782.66;7341019;19;20018;-71
2023/03/10 02:41:46;;;;;;;6.05;3.90;;;;;;;-3.24;73.36;97784.63;7338950;19;20086;-72
2023/03/10 02:44:19;;;;;;;5.15;2.92;;;;;;;-3.27;73.00;97792.59;7340209;19;20087;-72
2023/03/10 02:46:43;;;;;;;3.70;2.88;;;;;;;-3.31;73.33;97787.53;7341250;19;20038;-70
2023/03/10 02:49:11;;;;;;;3.72;2.53;;;;;;;-3.32;73.14;97787.59;7337844;19;20015;-69
2023/03/10 02:51:42;;;;;;;5.20;3.03;;;;;;;-3.34;72.95;97789.41;7338439;19;20056;-68
2023/03/10 02:54:11;;;;;;;3.88;2.80;;;;;;;-3.38;73.08;97780.88;7337733;19;20026;-71
2023/03/10 02:56:37;;;;;;;4.72;3.25;;;;;;;-3.38;73.47;97793.91;7338105;19;20023;-70
2023/03/10 02:59:04;;;;;;;5.85;3.13;;;;;;;-3.43;73.50;97792.44;7336664;19;20023;-68
2023/03/10 03:01:30;;;;;;;5.07;3.45;;;;;;;-3.45;73.20;97802.06;7339698;19;20022;-69
2023/03/10 03:03:56;;;;;;;4.68;3.35;;;;;;;-3.51;72.90;97808.41;7339051;19;20028;-67
2023/03/10 03:06:21;;;;;;;4.25;3.15;;;;;;;-3.47;73.57;97796.94;7340153;19;20023;-67
2023/03/10 03:08:46;;;;;;;4.65;2.53;;;;;;;-3.53;73.53;97791.16;7339065;19;20015;-67
2023/03/10 03:11:14;;;;;;;4.18;3.75;;;;;;;-3.54;73.72;97792.06;7345337;19;20021;-69
2023/03/10 03:13:39;;;;;;;5.03;3.20;;;;;;;-3.59;73.58;97801.84;7344698;19;20034;-68
2023/03/10 03:16:06;;;;;;;3.97;2.75;;;;;;;-3.65;73.51;97795.16;7346717;19;20025;-69
2023/03/10 03:18:31;;;;;;;3.97;3.00;;;;;;;-3.73;73.16;97795.50;7349021;19;20011;-68
2023/03/10 03:20:55;;;;;;;4.75;3.25;;;;;;;-3.74;72.82;97792.97;7350348;19;20033;-70
2023/03/10 03:23:20;;;;;;;7.03;3.30;;;;;;;-3.70;73.19;97807.50;7354931;19;20031;-71
2023/03/10 03:25:45;;;;;;;3.80;3.38;;;;;;;-3.75;73.03;97796.47;7348483;19;20014;-75
2023/03/10 03:28:13;;;;;;;3.67;2.38;;;;;;;-3.75;72.91;97804.28;7350096;19;20030;-74
2023/03/10 03:30:44;;;;;;;3.50;2.85;;;;;;;-3.76;72.82;97826.03;7347456;19;20345;-72
2023/03/10 03:33:09;;;;;;;5.15;3.22;;;;;;;-3.83;72.91;97806.34;7345301;19;20019;-72
2023/03/10 03:35:35;;;;;;;3.88;2.97;;;;;;;-3.82;72.45;97816.69;7347675;19;20025;-71
2023/03/10 03:38:02;;;;;;;4.82;2.90;;;;;;;-3.82;72.19;97816.69;7346107;19;20014;-72
2023/03/10 03:40:32;;;;;;;5.40;2.63;;;;;;;-3.82;72.18;97821.06;7346663;19;20323;-71
2023/03/10 03:42:57;;;;;;;4.63;2.70;;;;;;;-3.81;72.31;97817.56;7349008;19;20018;-70
2023/03/10 03:45:25;;;;;;;2.78;2.30;;;;;;;-3.79;72.13;97823.53;7347953;19;20007;-76
2023/03/10 03:47:52;;;;;;;4.47;2.80;;;;;;;-3.82;71.88;97827.13;7351007;19;20022;-78
2023/03/10 03:50:18;;;;;;;4.50;2.85;;;;;;;-3.84;70.76;97825.50;7350648;19;20003;-77
2023/03/10 03:52:43;;;;;;;4.43;2.90;;;;;;;-3.87;71.06;97823.03;7352431;19;20017;-78
2023/03/10 03:55:12;;;;;;;4.97;3.38;;;;;;;-3.83;71.37;97820.22;7350352;19;20469;-76
2023/03/10 03:57:37;;;;;;;3.60;2.67;;;;;;;-3.82;71.47;97834.06;7353355;19;20015;-78
2023/03/10 04:00:08;;;;;;;3.60;2.38;;;;;;;-3.81;70.90;97833.16;7349325;19;20015;-78
2023/03/10 04:02:38;;;;;;;5.78;3.10;;;;;;;-3.81;71.28;97838.38;7349334;19;20110;-79
2023/03/10 04:05:04;;;;;;;3.00;2.33;;;;;;;-3.84;71.30;97833.31;7350332;19;20019;-77
2023/03/10 04:07:30;;;;;;;3.78;2.75;;;;;;;-3.86;71.05;97840.34;7348879;19;20346;-76
2023/03/10 04:09:55;;;;;;;3.75;2.33;;;;;;;-3.88;70.63;97845.63;7350028;19;20016;-77
2023/03/10 04:12:20;;;;;;;3.90;2.92;;;;;;;-3.88;70.48;97845.63;7351546;19;20015;-77
2023/03/10 04:14:45;;;;;;;3.70;2.72;;;;;;;-3.90;70.15;97839.63;7348347;19;20049;-79
2023/03/10 04:17:10;;;;;;;3.55;2.42;;;;;;;-3.87;69.88;97849.06;7355517;19;20014;-79
2023/03/10 04:19:35;;;;;;;6.00;2.78;;;;;;;-3.83;69.80;97841.03;7358219;19;20039;-77
2023/03/10 04:22:04;;;;;;;4.75;3.05;;;;;;;-3.81;69.64;97848.78;7355991;19;20010;-79
2023/03/10 04:24:31;;;;;;;4.35;2.67;;;;;;;-3.83;69.94;97871.44;7350215;19;20017;-79
2023/03/10 04:26:56;;;;;;;4.53;2.78;;;;;;;-3.79;69.98;97873.00;7349054;19;20070;-78
2023/03/10 04:29:23;;;;;;;7.50;3.35;;;;;;;-3.80;70.00;97874.75;7349613;19;20016;-78
2023/03/10 04:31:50;;;;;;;5.05;3.30;;;;;;;-3.77;70.31;97873.78;7348606;19;20018;-78
2023/03/10 04:34:16;;;;;;;4.20;2.85;;;;;;;-3.76;70.48;97872.88;7345478;19;20018;-73
2023/03/10 04:36:40;;;;;;;5.68;3.22;;;;;;;-3.76;70.44;97878.09;7345218;19;20025;-72
2023/03/10 04:39:05;;;;;;;5.85;3.40;;;;;;;-3.76;70.33;97888.50;7345954;19;20445;-71
2023/03/10 04:41:30;;;;;;;4.85;2.97;;;;;;;-3.76;70.41;97891.97;7345150;19;20015;-76
2023/03/10 04:43:55;;;;;;;4.25;2.83;;;;;;;-3.76;70.33;97894.56;7345375;19;20009;-72
2023/03/10 04:46:19;;;;;;;5.10;3.25;;;;;;;-3.72;70.54;97893.50;7344104;19;20029;-73
2023/03/10 04:48:45;;;;;;;3.58;2.25;;;;;;;-3.70;70.89;97898.66;7347627;19;20011;-73
2023/03/10 04:51:12;;;;;;;5.85;2.90;;;;;;;-3.68;71.33;97896.84;7343684;19;20014;-74
2023/03/10 04:53:43;;;;;;;5.35;3.13;;;;;;;-3.75;71.73;97896.25;7345093;19;20074;-74
2023/03/10 04:56:09;;;;;;;5.28;3.50;;;;;;;-3.84;71.51;97901.00;7344211;19;20018;-72
2023/03/10 04:58:35;;;;;;;5.28;3.83;;;;;;;-3.92;71.44;97908.25;7346363;19;20022;-74
2023/03/10 05:01:00;;;;;;;11.07;4.07;;;;;;;-4.00;71.33;97915.53;7343355;19;20018;-73
2023/03/10 05:03:25;;;;;;;4.40;3.00;;;;;;;-4.05;70.99;97919.16;7347457;19;20006;-73
2023/03/10 05:05:50;;;;;;;5.93;3.50;;;;;;;-4.06;70.62;97922.69;7344269;19;20112;-74
2023/03/10 05:08:15;;;;;;;3.60;2.80;;;;;;;-4.05;70.53;97936.53;7346802;19;20015;-73
2023/03/10 05:10:41;;;;;;;3.55;2.90;;;;;;;-4.02;70.82;97936.44;7347123;19;20017;-76
2023/03/10 05:13:11;;;;;;;3.08;2.72;;;;;;;-4.03;70.63;97943.38;7346432;19;20377;-74
2023/03/10 05:15:40;;;;;;;7.40;3.33;;;;;;;-4.03;70.70;97943.38;7345185;19;20041;-76
2023/03/10 05:18:06;;;;;;;5.00;3.85;;;;;;;-4.05;70.01;97945.19;7346265;19;20323;-74
2023/03/10 05:20:31;;;;;;;9.07;4.47;;;;;;;-4.05;68.50;97950.41;7344027;19;20038;-74
2023/03/10 05:22:57;;;;;;;7.20;4.43;;;;;;;-4.06;68.42;97951.31;7346072;19;20429;-75
2023/03/10 05:25:22;;;;;;;5.93;3.78;;;;;;;-4.06;67.95;97948.69;7343296;19;20358;-74
2023/03/10 05:27:47;;;;;;;5.20;3.90;;;;;;;-4.21;65.72;97949.34;7345227;19;20006;-74
2023/03/10 05:30:14;;;;;;;6.45;4.18;;;;;;;-4.18;66.05;97959.63;7344548;19;20018;-75
2023/03/10 05:32:42;;;;;;;9.40;5.93;;;;;;;-4.16;67.50;97959.53;7345173;19;20013;-74
2023/03/10 05:35:08;;;;;;;15.68;8.38;;;;;;;-4.20;66.09;97956.22;7344536;19;20335;-73
2023/03/10 05:37:39;;;;;;;16.40;8.50;;;;;;;-4.12;66.04;97966.34;7344853;19;20018;-73
2023/03/10 05:40:07;;;;;;;8.52;6.47;;;;;;;-4.03;67.19;97961.59;7343212;19;20034;-74
2023/03/10 05:42:32;;;;;;;13.18;6.60;;;;;;;-3.95;65.70;97982.09;7342643;19;20373;-73
2023/03/10 05:44:57;;;;;;;7.35;5.00;;;;;;;-3.95;64.80;97963.06;7342432;19;20403;-73
2023/03/10 05:47:21;;;;;;;7.53;4.95;;;;;;;-3.92;65.10;97976.78;7345100;19;20542;-72
2023/03/10 05:49:46;;;;;;;8.32;4.30;;;;;;;-3.87;64.06;97981.81;7344328;19;20453;-74
2023/03/10 05:52:11;;;;;;;7.85;4.45;;;;;;;-3.73;64.31;97985.56;7347782;19;20521;-74
2023/03/10 05:54:38;;;;;;;6.32;4.18;;;;;;;-3.72;63.06;97992.44;7345403;19;20015;-74
2023/03/10 05:57:03;;;;;;;8.60;4.88;;;;;;;-3.73;62.04;98001.19;7347176;19;20015;-74
2023/03/10 05:59:29;;;;;;;7.05;4.50;;;;;;;-3.53;62.46;98002.97;7346913;19;20038;-75
2023/03/10 06:01:54;;;;;;;7.35;4.28;;;;;;;-3.20;61.63;98003.31;7346272;19;20348;-75
2023/03/10 06:04:18;;;;;;;7.05;4.63;;;;;;;-2.98;60.12;98016.28;7344207;19;20014;-75
2023/03/10 06:06:43;;;;;;;6.07;4.10;;;;;;;-2.73;59.73;98009.09;7346677;19;20366;-74
2023/03/10 06:09:08;;;;;;;8.05;5.22;;;;;;;-2.53;58.43;98004.72;7344477;19;20022;-75
2023/03/10 06:11:32;;;;;;;7.68;4.53;;;;;;;-2.32;58.30;98008.97;7344551;19;20457;-74
2023/03/10 06:13:57;;;;;;;7.72;4.50;;;;;;;-2.10;57.45;98001.84;7344034;19;20501;-74
2023/03/10 06:16:21;;;;;;;10.23;4.82;;;;;;;-2.13;56.44;98019.41;7343653;19;20014;-74
2023/03/10 06:18:46;;;;;;;8.73;5.13;;;;;;;-2.26;56.67;98008.72;7344830;19;20022;-77
2023/03/10 06:21:13;;;;;;;9.55;6.15;;;;;;;-2.60;57.13;98019.81;7344487;19;20007;-74
2023/03/10 06:23:37;;;;;;;6.60;4.70;;;;;;;-2.49;58.45;98020.19;7345636;19;20018;-75
2023/03/10 06:26:08;;;;;;;7.18;4.38;;;;;;;-2.38;58.67;98025.78;7344758;19;20022;-74
2023/03/10 06:28:35;;;;;;;6.03;4.10;;;;;;;-2.47;58.25;98030.53;7347235;19;20462;-76
2023/03/10 06:31:01;;;;;;;10.82;5.65;;;;;;;-2.81;57.92;98034.63;7349202;19;20011;-74
2023/03/10 06:33:27;;;;;;;6.80;4.30;;;;;;;-2.97;59.22;98042.28;7347454;19;20007;-75
2023/03/10 06:35:52;;;;;;;7.75;4.90;;;;;;;-2.92;59.52;98049.88;7353256;19;20029;-75
2023/03/10 06:38:17;;;;;;;6.28;4.60;;;;;;;-3.35;59.30;98054.31;7351656;19;20046;-74
2023/03/10 06:40:41;;;;;;;7.65;4.80;;;;;;;-3.26;60.32;98060.03;7348623;19;20011;-73
2023/03/10 06:43:06;;;;;;;8.52;5.60;;;;;;;-3.27;60.80;98053.16;7346486;19;20110;-76
2023/03/10 06:45:30;;;;;;;7.13;4.53;;;;;;;-3.22;60.57;98062.47;7351900;19;20027;-75
2023/03/10 06:47:55;;;;;;;6.50;4.72;;;;;;;-3.17;60.61;98062.28;7355786;19;20026;-74
2023/03/10 06:50:22;;;;;;;8.57;4.30;;;;;;;-3.22;60.27;98056.41;7352332;19;20450;-77
2023/03/10 06:52:47;;;;;;;6.20;4.20;;;;;;;-3.10;60.89;98079.34;7351452;19;20501;-74
2023/03/10 06:55:13;;;;;;;9.27;4.65;;;;;;;-3.08;60.18;98078.38;7349875;19;20045;-73
2023/03/10 06:57:38;;;;;;;6.97;4.53;;;;;;;-2.90;60.04;98075.91;7353310;19;20019;-73
2023/03/10 07:00:04;;;;;;;13.38;6.15;;;;;;;-3.17;58.54;98081.38;7352233;19;20014;-72
2023/03/10 07:02:28;;;;;;;7.85;4.78;;;;;;;-3.03;58.67;98084.25;7345965;19;20010;-72
2023/03/10 07:04:53;;;;;;;11.15;4.57;;;;;;;-2.67;59.37;98092.25;7349404;19;20018;-72
2023/03/10 07:07:18;;;;;;;7.93;4.63;;;;;;;-2.00;59.17;98078.81;7349826;19;20010;-73
2023/03/10 07:09:42;;;;;;;8.75;4.75;;;;;;;-1.27;57.00;98077.94;7348751;19;20021;-73
2023/03/10 07:12:07;;;;;;;7.05;4.20;;;;;;;-1.00;54.78;98088.81;7348229;19;20411;-74
2023/03/10 07:14:32;;;;;;;5.32;4.22;;;;;;;-0.69;52.63;98095.97;7348101;19;20011;-73
2023/03/10 07:16:57;;;;;;;7.68;4.45;;;;;;;-0.13;52.60;98095.66;7347998;19;20011;-74
2023/03/10 07:19:22;;;;;;;6.20;4.28;;;;;;;1.15;52.41;98093.72;7350202;19;20022;-72
2023/03/10 07:21:47;;;;;;;7.03;4.18;;;;;;;3.27;46.49;98089.16;7344891;19;20058;-71
2023/03/10 07:24:11;;;;;;;6.47;3.80;;;;;;;4.48;43.92;98086.91;7348420;19;20015;-71
2023/03/10 07:26:36;;;;;;;6.65;4.72;;;;;;;4.15;40.51;98085.72;7347081;19;20045;-71
2023/03/10 07:29:01;;;;;;;6.10;4.45;;;;;;;3.90;41.74;98091.84;7347937;19;20026;-75
2023/03/10 07:31:26;;;;;;;9.43;4.63;;;;;;;3.40;43.25;98097.06;7349238;19;20069;-74
2023/03/10 07:33:50;;;;;;;7.57;4.28;;;;;;;2.64;43.50;98100.31;7347482;19;20063;-75
2023/03/10 07:36:17;;;;;;;6.82;4.35;;;;;;;2.31;46.10;98105.91;7349507;19;20015;-75
2023/03/10 07:38:42;;;;;;;11.20;4.15;;;;;;;1.90;46.82;98108.47;7349109;19;20362;-74
2023/03/10 07:41:14;;;;;;;7.28;4.28;;;;;;;1.66;47.21;98115.22;7350457;19;21042;-76
2023/03/10 07:43:39;;;;;;;8.60;4.43;;;;;;;1.22;46.15;98118.69;7353324;19;20014;-79
2023/03/10 07:46:09;;;;;;;7.07;3.90;;;;;;;0.93;46.22;98114.25;7358599;19;20477;-78
2023/03/10 07:48:34;;;;;;;7.35;4.45;;;;;;;1.11;47.63;98115.00;7357834;19;20014;-80
2023/03/10 07:50:59;;;;;;;8.57;3.33;;;;;;;1.05;47.33;98124.88;7357245;19;20014;-80
2023/03/10 07:53:25;;;;;;;8.50;4.50;;;;;;;0.63;46.76;98120.28;7355933;19;20046;-80
2023/03/10 07:55:50;;;;;;;8.00;4.93;;;;;;;0.46;48.09;98127.38;7356855;19;20043;-80
2023/03/10 07:58:14;;;;;;;6.68;4.40;;;;;;;1.37;49.62;98130.03;7359271;19;20465;-77
2023/03/10 08:00:39;;;;;;;6.68;4.38;;;;;;;2.68;43.88;98122.84;7355242;19;20010;-77
2023/03/10 08:03:04;;;;;;;6.32;4.03;;;;;;;3.27;41.39;98115.50;7355799;19;20466;-78
2023/03/10 08:05:28;;;;;;;8.75;4.15;;;;;;;3.03;41.68;98115.31;7353649;19;20569;-76
2023/03/10 08:07:53;;;;;;;7.00;3.60;;;;;;;2.78;41.79;98120.47;7355769;19;20019;-77
2023/03/10 08:10:18;;;;;;;10.68;5.13;;;;;;;2.46;43.20;98126.00;7351507;19;20015;-76
2023/03/10 08:12:42;;;;;;;6.07;3.92;;;;;;;2.25;44.68;98122.09;7351740;19;20010;-76
2023/03/10 08:15:08;;;;;;;7.28;4.28;;;;;;;1.89;44.95;98138.31;7353645;19;20540;-76
2023/03/10 08:17:32;;;;;;;5.25;3.78;;;;;;;1.54;44.72;98142.19;7349958;19;20017;-76
2023/03/10 08:19:57;;;;;;;8.43;4.57;;;;;;;1.24;45.15;98144.84;7349645;19;20106;-75
2023/03/10 08:22:22;;;;;;;6.28;3.75;;;;;;;1.26;46.23;98150.81;7347249;19;20015;-77
2023/03/10 08:24:47;;;;;;;5.88;4.28;;;;;;;1.31;47.52;98141.75;7354971;19;20434;-77
2023/03/10 08:27:11;;;;;;;6.15;3.88;;;;;;;1.39;47.33;98143.94;7346918;19;20335;-74
2023/03/10 08:29:36;;;;;;;9.98;4.82;;;;;;;1.21;46.61;98155.50;7350793;19;20022;-77
2023/03/10 08:32:00;;;;;;;6.88;3.83;;;;;;;0.90;46.53;98152.03;7348985;19;20010;-74
2023/03/10 08:34:25;;;;;;;7.05;4.30;;;;;;;0.12;46.78;98157.19;7347495;19;20018;-76
2023/03/10 08:36:49;;;;;;;4.97;4.05;;;;;;;0.16;48.06;98153.50;7347117;19;20027;-73
2023/03/10 08:39:14;;;;;;;5.43;3.63;;;;;;;1.02;47.20;98160.94;7348182;19;20011;-73
2023/03/10 08:41:44;;;;;;;6.35;4.00;;;;;;;2.25;45.40;98156.28;7344838;19;20031;-75
2023/03/10 08:44:13;;;;;;;5.22;3.70;;;;;;;2.59;44.10;98156.81;7349831;19;20022;-75
2023/03/10 08:46:38;;;;;;;8.10;3.85;;;;;;;2.17;44.64;98161.97;7350148;19;20018;-75
2023/03/10 08:49:03;;;;;;;7.35;4.55;;;;;;;1.35;44.07;98173.94;7349889;19;20480;-74
2023/03/10 08:51:28;;;;;;;6.75;4.13;;;;;;;0.84;45.79;98162.84;7348018;19;20018;-74
2023/03/10 08:53:53;;;;;;;8.98;4.20;;;;;;;0.63;47.52;98170.13;7350078;19;20018;-75
2023/03/10 08:56:20;;;;;;;8.52;4.07;;;;;;;0.60;48.23;98174.69;7349622;19;20286;-74
2023/03/10 08:58:44;;;;;;;7.25;4.53;;;;;;;0.49;48.92;98188.38;7348736;19;20355;-74
2023/03/10 09:01:11;;;;;;;7.63;4.50;;;;;;;0.25;49.14;98187.91;7346014;19;20095;-75
2023/03/10 09:03:38;;;;;;;8.95;4.63;;;;;;;-0.15;48.62;98188.31;7349983;19;20030;-76
2023/03/10 09:06:03;;;;;;;7.82;3.88;;;;;;;-0.23;48.74;98190.50;7347092;19;20337;-75
2023/03/10 09:08:27;;;;;;;7.00;4.30;;;;;;;-0.57;47.54;98181.72;7346189;19;20074;-75
2023/03/10 09:10:52;;;;;;;7.03;4.15;;;;;;;-0.58;48.09;98195.72;7347563;19;20027;-75
2023/03/10 09:13:17;;;;;;;5.10;3.67;;;;;;;-0.39;49.47;98196.50;7346737;19;20042;-75
2023/03/10 09:15:42;;;;;;;5.32;3.50;;;;;;;-0.39;49.10;98195.66;7346562;19;20006;-74
2023/03/10 09:18:08;;;;;;;7.95;4.40;;;;;;;-0.51;49.62;98202.34;7348578;19;20351;-76
2023/03/10 09:20:32;;;;;;;6.10;3.75;;;;;;;-0.50;49.75;98197.94;7345751;19;20011;-75
2023/03/10 09:22:57;;;;;;;5.82;4.18;;;;;;;-0.63;50.17;98200.31;7348303;19;20178;-77
2023/03/10 09:25:22;;;;;;;5.00;3.80;;;;;;;-0.80;50.15;98195.09;7347927;19;20345;-78
2023/03/10 09:27:46;;;;;;;5.57;4.00;;;;;;;-0.83;50.12;98196.09;7348057;19;20035;-78
2023/03/10 09:30:12;;;;;;;6.05;3.20;;;;;;;-0.81;50.54;98199.47;7345089;19;20504;-77
2023/03/10 09:32:36;;;;;;;5.75;3.15;;;;;;;-1.00;48.94;98200.41;7347071;19;20014;-77
2023/03/10 09:35:01;;;;;;;6.25;3.65;;;;;;;-0.94;49.20;98210.59;7345356;19;20018;-78
2023/03/10 09:37:25;;;;;;;4.18;3.03;;;;;;;-0.79;50.65;98212.50;7346543;19;20368;-78
2023/03/10 09:39:51;;;;;;;4.85;2.92;;;;;;;-0.75;50.86;98211.41;7345495;19;20018;-77
2023/03/10 09:42:23;;;;;;;5.53;3.58;;;;;;;-0.69;50.16;98208.50;7343440;19;20018;-79
2023/03/10 09:44:59;;;;;;;8.82;3.90;;;;;;;-0.97;48.78;98197.66;7346352;19;20584;-77
2023/03/10 09:47:26;;;;;;;9.20;4.70;;;;;;;-1.15;49.27;98218.56;7347303;19;20342;-76
2023/03/10 09:50:09;;;;;;;7.05;4.05;;;;;;;-1.12;50.25;98226.22;7348872;19;20022;-78
2023/03/10 09:53:01;;;;;;;5.22;3.08;;;;;;;-0.80;51.38;98229.09;7348693;19;20022;-76
2023/03/10 09:55:39;;;;;;;5.50;3.47;;;;;;;-0.82;51.34;98238.78;7345975;19;20014;-76
2023/03/10 09:58:04;;;;;;;5.38;4.22;;;;;;;-0.93;50.28;98226.22;7349448;19;20331;-75
2023/03/10 10:00:36;;;;;;;6.05;3.95;;;;;;;-0.90;50.76;98226.06;7347510;19;20029;-76
2023/03/10 10:03:13;;;;;;;5.57;3.55;;;;;;;-0.86;50.58;98229.38;7347702;19;20407;-76
2023/03/10 10:05:41;;;;;;;8.75;4.38;;;;;;;-0.99;50.79;98225.66;7345985;19;20385;-76
2023/03/10 10:08:33;;;;;;;5.68;3.70;;;;;;;-1.17;51.31;98227.38;7348797;19;20014;-77
2023/03/10 10:10:59;;;;;;;6.55;3.50;;;;;;;-1.30;51.73;98231.47;7346942;19;20037;-74
2023/03/10 10:13:28;;;;;;;4.85;3.60;;;;;;;-1.21;52.35;98241.50;7349042;19;20014;-75
2023/03/10 10:16:18;;;;;;;8.77;3.90;;;;;;;-1.08;52.51;98236.56;7347374;19;20457;-75
2023/03/10 10:18:54;;;;;;;6.38;3.65;;;;;;;-0.92;51.01;98240.16;7349086;19;20015;-75
2023/03/10 10:21:34;;;;;;;5.13;3.65;;;;;;;-0.81;50.13;98235.25;7361419;19;20057;-74
2023/03/10 10:23:59;;;;;;;4.10;2.97;;;;;;;-0.78;50.24;98235.09;7358469;19;20014;-74
2023/03/10 10:26:25;;;;;;;6.07;3.47;;;;;;;-0.94;50.14;98247.22;7357283;19;20026;-75
2023/03/10 10:29:25;;;;;;;5.50;3.60;;;;;;;-1.02;49.95;98244.97;7358039;19;20026;-74
2023/03/10 10:32:10;;;;;;;7.38;4.30;;;;;;;-0.98;50.47;98249.13;7355055;19;20011;-75
2023/03/10 10:34:37;;;;;;;10.45;4.93;;;;;;;-1.25;50.57;98248.66;7354843;19;20523;-75
2023/03/10 10:37:18;;;;;;;5.13;3.30;;;;;;;-1.46;51.40;98253.09;7357531;19;20031;-72
2023/03/10 10:39:50;;;;;;;6.18;3.90;;;;;;;-1.45;51.97;98248.69;7354712;19;20022;-72
2023/03/10 10:42:32;;;;;;;6.65;3.80;;;;;;;-1.70;52.27;98253.38;7353920;19;20014;-71
2023/03/10 10:44:57;;;;;;;5.80;4.43;;;;;;;-1.52;52.76;98255.13;7353867;19;20014;-74
2023/03/10 10:47:54;;;;;;;6.50;3.60;;;;;;;-1.30;52.81;98252.41;7355179;19;20014;-73
2023/03/10 10:50:25;;;;;;;5.95;4.60;;;;;;;-1.13;52.56;98255.91;7354554;19;20026;-77
2023/03/10 10:53:12;;;;;;;5.43;3.55;;;;;;;-1.17;51.09;98264.84;7357885;19;20014;-80
2023/03/10 10:55:37;;;;;;;3.95;3.33;;;;;;;-1.30;50.99;98263.69;7355636;19;20079;-80
2023/03/10 10:58:42;;;;;;;6.15;3.70;;;;;;;-1.15;50.48;98267.38;7357421;19;20023;-78
2023/03/10 11:01:12;;;;;;;6.15;3.38;;;;;;;-0.98;51.68;98280.50;7356865;19;20014;-79
2023/03/10 11:03:47;;;;;;;4.68;3.53;;;;;;;-0.87;51.55;98280.00;7360998;19;20018;-76
2023/03/10 11:06:31;;;;;;;5.82;4.07;;;;;;;-0.82;50.42;98275.41;7362963;19;20018;-76
2023/03/10 11:09:08;;;;;;;4.85;3.90;;;;;;;-0.70;51.46;98284.44;7362611;19;20015;-78
2023/03/10 11:11:55;;;;;;;5.25;3.50;;;;;;;-0.62;51.58;98293.63;7360552;19;20007;-74
2023/03/10 11:14:28;;;;;;;4.40;3.30;;;;;;;-0.73;51.12;98290.69;7355973;19;20085;-74
2023/03/10 11:17:04;;;;;;;6.38;3.88;;;;;;;-0.95;51.13;98296.06;7356603;19;20102;-73
2023/03/10 11:19:45;;;;;;;4.15;2.88;;;;;;;-1.14;51.06;98306.53;7356104;19;20014;-73
2023/03/10 11:22:26;;;;;;;5.45;3.83;;;;;;;-1.15;51.74;98304.84;7357734;19;20018;-74
2023/03/10 11:25:23;;;;;;;7.10;3.58;;;;;;;-1.04;52.12;98311.34;7357286;19;20026;-76
2023/03/10 11:28:15;;;;;;;5.32;3.65;;;;;;;-1.11;51.12;98309.00;7353392;19;20129;-74
2023/03/10 11:31:00;;;;;;;4.82;2.90;;;;;;;-1.21;51.44;98310.34;7353441;19;20470;-74
2023/03/10 11:33:25;;;;;;;5.65;3.97;;;;;;;-1.14;52.16;98321.38;7348760;19;20413;-74
2023/03/10 11:35:55;;;;;;;4.95;2.97;;;;;;;-1.06;52.85;98318.41;7348359;19;20398;-74
2023/03/10 11:38:41;;;;;;;7.88;3.53;;;;;;;-1.06;52.33;98336.72;7352929;19;20025;-70